Atalanti — 5BYY2 — position and weather

sailwx.info

Track history (hours):
 
Tides and Currents Weather Stations Pressure Air Temp Water Temp Dewpoint Dewpoint Depression Visibility Wind Speed Wind Dir Waves Ship Positions

Atalanti

Last reported at 2014-Dec-19 22:33 UTC. Time now 2014-Dec-19 23:27 UTC.
Position N 39°22' E 002°23'.

Length 97 m; draft 6 m.

Type: Other ship. MMSI: 212279000.

Date/timePositionNaut miles runAvg speedWind from/ knotsBaromVisibWave heightAir tempDewpointWater temp
2014-Dec-19 22:33N 39°22' E 002°23'0 0.1
2014-Dec-19 21:33N 39°22' E 002°23'0 0.4
2014-Dec-19 20:33N 39°23' E 002°23'0 0.4
2014-Dec-19 19:33N 39°23' E 002°23'0 0.4
2014-Dec-19 18:33N 39°23' E 002°23'0 0.4
2014-Dec-19 17:33N 39°24' E 002°24'0 0.4
2014-Dec-19 16:33N 39°24' E 002°24'0 0.0
2014-Dec-19 15:33N 39°24' E 002°24'0 0.0
2014-Dec-19 14:33N 39°24' E 002°24'0 0.3
2014-Dec-19 13:33N 39°24' E 002°24'0 0.4
2014-Dec-19 12:33N 39°25' E 002°24'0 0.4
2014-Dec-19 11:33N 39°25' E 002°24'0 0.4
2014-Dec-19 10:33N 39°25' E 002°24'0 0.4
2014-Dec-19 09:33N 39°26' E 002°24'0 0.4
2014-Dec-19 08:33N 39°26' E 002°25'0 0.4
2014-Dec-19 07:33N 39°26' E 002°25'0 0.4
2014-Dec-19 06:33N 39°27' E 002°25'0 0.4
2014-Dec-19 05:33N 39°27' E 002°25'0 0.4
2014-Dec-19 04:33N 39°27' E 002°25'0 0.4
2014-Dec-19 03:33N 39°28' E 002°25'0 0.3
2014-Dec-19 02:33N 39°28' E 002°26'0 0.0
2014-Dec-19 01:33N 39°28' E 002°26'0 0.3
2014-Dec-19 00:33N 39°28' E 002°26'0 0.4
2014-Dec-18 23:33N 39°29' E 002°26'0 0.4
2014-Dec-18 22:33N 39°29' E 002°26'0 0.4
2014-Dec-18 21:33N 39°29' E 002°26'0 0.4
2014-Dec-18 20:34N 39°30' E 002°26'0 0.4
2014-Dec-18 19:34N 39°30' E 002°27'0 0.4
2014-Dec-18 18:33N 39°30' E 002°27'0 0.4
2014-Dec-18 17:34N 39°31' E 002°27'0 0.4
2014-Dec-18 16:33N 39°31' E 002°28'0 0.2
2014-Dec-18 15:33N 39°31' E 002°28'0 0.0
2014-Dec-18 14:33N 39°31' E 002°28'0 0.1
2014-Dec-18 13:33N 39°31' E 002°28'0 0.0
2014-Dec-18 12:33N 39°31' E 002°28'0 0.0
2014-Dec-18 11:33N 39°31' E 002°28'0 0.0
2014-Dec-18 10:33N 39°31' E 002°28'0 0.1
2014-Dec-18 09:33N 39°31' E 002°28'0 0.1
2014-Dec-18 08:33N 39°31' E 002°28'0 0.0
2014-Dec-18 07:33N 39°31' E 002°28'0 0.3
2014-Dec-18 06:33N 39°31' E 002°27'0 0.0
2014-Dec-18 05:34N 39°31' E 002°27'0 0.0
2014-Dec-18 04:33N 39°31' E 002°27'0 0.0
2014-Dec-18 03:33N 39°31' E 002°27'0 0.0
2014-Dec-18 02:33N 39°31' E 002°27'0 0.0
2014-Dec-18 01:33N 39°31' E 002°27'0 0.0
2014-Dec-18 00:33N 39°31' E 002°27'0 0.0
2014-Dec-17 23:33N 39°31' E 002°27'0 0.0
2014-Dec-17 22:33N 39°31' E 002°27'0 0.0
2014-Dec-17 21:33N 39°31' E 002°27'1 0.9
2014-Dec-17 20:33N 39°31' E 002°26'0 0.0
2014-Dec-17 19:33N 39°31' E 002°26'0 0.0
2014-Dec-17 18:33N 39°31' E 002°26'3 2.9
2014-Dec-17 17:33N 39°28' E 002°25'4 4.4
2014-Dec-17 16:33N 39°24' E 002°24'0 0.3
2014-Dec-17 15:33N 39°24' E 002°23'6 5.9
2014-Dec-17 14:33N 39°20' E 002°17'6 5.9
2014-Dec-17 13:33N 39°16' E 002°11'6 6.0
2014-Dec-17 12:33N 39°13' E 002°05'6 5.9
2014-Dec-17 11:33N 39°09' E 001°60'6 5.8
2014-Dec-17 10:33N 39°05' E 001°54'5 5.3
2014-Dec-17 09:33N 39°02' E 001°49'5 5.3
2014-Dec-17 08:33N 38°58' E 001°43'2 1.8
2014-Dec-17 07:34N 38°57' E 001°41'0 0.2
2014-Dec-17 06:33N 38°57' E 001°41'0 0.0
2014-Dec-17 05:33N 38°57' E 001°41'0 0.0
2014-Dec-17 04:33N 38°57' E 001°41'0 0.0
2014-Dec-17 03:33N 38°57' E 001°41'0 0.0
2014-Dec-17 02:33N 38°57' E 001°41'0 0.0
2014-Dec-17 01:34N 38°57' E 001°41'0 0.0
2014-Dec-17 00:33N 38°57' E 001°41'0 0.0
2014-Dec-16 23:33N 38°57' E 001°41'0 0.0
2014-Dec-16 22:33N 38°57' E 001°41'0 0.0
2014-Dec-16 21:33N 38°57' E 001°41'0 0.1
2014-Dec-16 20:33N 38°57' E 001°41'0 0.4
2014-Dec-16 19:33N 38°57' E 001°40'0 0.4
2014-Dec-16 18:33N 38°57' E 001°40'0 0.4
2014-Dec-16 17:33N 38°57' E 001°39'0 0.4
2014-Dec-16 16:33N 38°57' E 001°39'0 0.4
2014-Dec-16 15:33N 38°57' E 001°38'0 0.4
2014-Dec-16 14:34N 38°57' E 001°38'0 0.4
2014-Dec-16 13:33N 38°57' E 001°37'0 0.4
2014-Dec-16 12:33N 38°56' E 001°37'0 0.4
2014-Dec-16 11:33N 38°56' E 001°36'0 0.4
2014-Dec-16 10:33N 38°56' E 001°36'0 0.4
2014-Dec-16 09:33N 38°56' E 001°36'0 0.4
2014-Dec-16 08:33N 38°56' E 001°35'0 0.4
2014-Dec-16 07:33N 38°56' E 001°35'0 0.4
2014-Dec-16 06:33N 38°56' E 001°34'0 0.4
2014-Dec-16 05:33N 38°56' E 001°34'0 0.4
2014-Dec-16 04:33N 38°56' E 001°33'0 0.3
2014-Dec-16 03:33N 38°56' E 001°33'0 0.2
2014-Dec-16 02:33N 38°56' E 001°32'0 0.4
2014-Dec-16 01:22N 38°55' E 001°32'0 0.4
2014-Dec-16 00:16N 38°55' E 001°31'0 0.4
2014-Dec-15 23:33N 38°55' E 001°31'0 0.4
2014-Dec-15 22:34N 38°55' E 001°31'0 0.4
2014-Dec-15 21:33N 38°55' E 001°30'0 0.4
2014-Dec-15 20:33N 38°55' E 001°30'0 0.4
2014-Dec-15 19:33N 38°55' E 001°29'0 0.4
2014-Dec-15 18:33N 38°54' E 001°29'0 0.3
2014-Dec-15 17:33N 38°54' E 001°28'0 0.3
2014-Dec-15 16:33N 38°54' E 001°28'0 0.0
2014-Dec-15 15:33N 38°54' E 001°28'0 0.0
2014-Dec-15 14:33N 38°54' E 001°28'0 0.0
2014-Dec-15 13:33N 38°54' E 001°28'0 0.0
2014-Dec-15 12:33N 38°54' E 001°28'0 0.0
2014-Dec-15 11:33N 38°54' E 001°28'0 0.2
2014-Dec-15 10:33N 38°54' E 001°28'6 6.4
2014-Dec-15 09:33N 38°57' E 001°36'3 2.5
2014-Dec-15 08:33N 38°58' E 001°38'0 0.0
2014-Dec-15 07:33N 38°58' E 001°38'0 0.1
2014-Dec-15 06:33N 38°58' E 001°38'6 6.5
2014-Dec-15 05:34N 39°02' E 001°45'6 6.2
2014-Dec-15 04:33N 39°05' E 001°52'6 5.9
2014-Dec-15 03:33N 39°09' E 001°58'6 5.5
2014-Dec-15 02:33N 39°12' E 002°04'5 5.2
2014-Dec-15 01:34N 39°15' E 002°10'5 5.3
2014-Dec-15 00:33N 39°17' E 002°16'6 5.6
2014-Dec-14 23:33N 39°20' E 002°22'6 5.9
2014-Dec-14 22:33N 39°23' E 002°28'6 6.0
2014-Dec-14 21:33N 39°27' E 002°34'6 6.4
2014-Dec-14 20:33N 39°32' E 002°39'1 0.6
2014-Dec-14 19:33N 39°33' E 002°38'0 0.0
2014-Dec-14 18:33N 39°33' E 002°38'0 0.0
2014-Dec-14 17:33N 39°33' E 002°38'0 0.0
2014-Dec-14 16:30N 39°33' E 002°38'0 0.0
2014-Dec-14 15:33N 39°33' E 002°38'0 0.0
2014-Dec-14 14:33N 39°33' E 002°38'0 0.0
2014-Dec-14 13:33N 39°33' E 002°38'0 0.0
2014-Dec-14 12:33N 39°33' E 002°38'0 0.0
2014-Dec-14 11:33N 39°33' E 002°38'0 0.0
2014-Dec-14 10:33N 39°33' E 002°38'0 0.0
2014-Dec-14 09:33N 39°33' E 002°38'0 0.0
2014-Dec-14 08:33N 39°33' E 002°38'1 1.0
2014-Dec-14 07:33N 39°32' E 002°39'5 5.3
2014-Dec-14 06:33N 39°27' E 002°40'4 3.8
2014-Dec-14 05:33N 39°23' E 002°41'7 7.1
2014-Dec-14 04:33N 39°16' E 002°43'7 7.1
2014-Dec-14 03:33N 39°09' E 002°40'6 6.5
2014-Dec-14 02:33N 39°03' E 002°39'6 6.0
2014-Dec-14 01:33N 39°03' E 002°47'6 6.0
2014-Dec-14 00:33N 39°04' E 002°55'6 5.7
2014-Dec-13 23:33N 39°05' E 003°02'6 5.8
2014-Dec-13 22:33N 39°04' E 003°09'6 6.0
2014-Dec-13 21:33N 39°04' E 003°17'6 6.2
2014-Dec-13 20:33N 39°04' E 003°25'6 6.1
2014-Dec-13 19:33N 39°03' E 003°33'6 6.1
2014-Dec-13 18:33N 39°03' E 003°41'4 4.0
2014-Dec-13 17:33N 39°03' E 003°46'39 6.1
2014-Dec-13 11:07N 39°01' E 004°36'6 6.4
2014-Dec-13 10:13N 39°00' E 004°44'169 7.8
2014-Dec-12 12:29N 38°49' E 008°20'7 7.5
2014-Dec-12 11:33N 38°49' E 008°29'8 7.7
2014-Dec-12 10:30N 38°50' E 008°40'8 7.9
2014-Dec-12 09:33N 38°50' E 008°49'8 7.9
2014-Dec-12 08:33N 38°52' E 008°59'8 7.8
2014-Dec-12 07:33N 38°58' E 009°06'8 8.0
2014-Dec-12 06:33N 39°05' E 009°10'2 1.8
2014-Dec-12 05:31N 39°07' E 009°09'0 0.1
2014-Dec-12 04:31N 39°07' E 009°09'0 0.0
2014-Dec-12 03:31N 39°07' E 009°09'0 0.0
2014-Dec-12 02:31N 39°07' E 009°09'0 0.0
2014-Dec-12 01:31N 39°07' E 009°09'0 0.0
2014-Dec-12 00:31N 39°07' E 009°09'0 0.0
2014-Dec-11 23:31N 39°07' E 009°09'0 0.0
2014-Dec-11 22:31N 39°07' E 009°09'0 0.0
2014-Dec-11 21:31N 39°07' E 009°09'0 0.0
2014-Dec-11 20:31N 39°07' E 009°09'0 0.0
2014-Dec-11 19:31N 39°07' E 009°09'0 0.0
2014-Dec-11 18:31N 39°07' E 009°09'0 0.0
2014-Dec-11 17:31N 39°07' E 009°09'0 0.0
2014-Dec-11 16:31N 39°07' E 009°09'0 0.0
2014-Dec-11 15:31N 39°07' E 009°09'0 0.0
2014-Dec-11 14:31N 39°07' E 009°09'0 0.0
2014-Dec-11 13:31N 39°07' E 009°09'0 0.0
2014-Dec-11 12:31N 39°07' E 009°09'0 0.0
2014-Dec-11 11:31N 39°07' E 009°09'0 0.0
2014-Dec-11 10:31N 39°07' E 009°09'0 0.0
2014-Dec-11 09:31N 39°07' E 009°09'0 0.0
2014-Dec-11 08:31N 39°07' E 009°09'0 0.0
2014-Dec-11 07:31N 39°07' E 009°09'0 0.0
2014-Dec-11 06:31N 39°07' E 009°09'0 0.0
2014-Dec-11 05:31N 39°07' E 009°09'0 0.0
2014-Dec-11 04:31N 39°07' E 009°09'0 0.0
2014-Dec-11 03:31N 39°07' E 009°09'0 0.0
2014-Dec-11 02:31N 39°07' E 009°09'0 0.0
2014-Dec-11 01:31N 39°07' E 009°09'0 0.0
2014-Dec-11 00:31N 39°07' E 009°09'0 0.0
2014-Dec-10 23:31N 39°07' E 009°09'0 0.0
2014-Dec-10 22:31N 39°07' E 009°09'0 0.0
2014-Dec-10 21:31N 39°07' E 009°09'0 0.0
2014-Dec-10 20:31N 39°07' E 009°09'0 0.0
2014-Dec-10 19:31N 39°07' E 009°09'0 0.0
2014-Dec-10 18:31N 39°07' E 009°09'0 0.0
2014-Dec-10 17:31N 39°07' E 009°09'0 0.0
2014-Dec-10 16:31N 39°07' E 009°09'0 0.0
2014-Dec-10 15:31N 39°07' E 009°09'0 0.0
2014-Dec-10 14:31N 39°07' E 009°09'0 0.0
2014-Dec-10 13:31N 39°07' E 009°09'0 0.0
2014-Dec-10 12:31N 39°07' E 009°09'0 0.0
2014-Dec-10 11:31N 39°07' E 009°09'0 0.0
2014-Dec-10 10:31N 39°07' E 009°09'0 0.0
2014-Dec-10 09:31N 39°07' E 009°09'0 0.0
2014-Dec-10 08:31N 39°07' E 009°09'0 0.0
2014-Dec-10 07:31N 39°07' E 009°09'0 0.0
2014-Dec-10 06:31N 39°07' E 009°09'0 0.0
2014-Dec-10 05:31N 39°07' E 009°09'0 0.0
2014-Dec-10 04:31N 39°07' E 009°09'0 0.0
2014-Dec-10 03:31N 39°07' E 009°09'0 0.0
2014-Dec-10 02:31N 39°07' E 009°09'0 0.0
2014-Dec-10 01:31N 39°07' E 009°09'0 0.0
2014-Dec-10 00:31N 39°07' E 009°09'0 0.0
2014-Dec-09 23:31N 39°07' E 009°09'  
Track history (hours):
 
Tides and Currents Weather Stations Pressure Air Temp Water Temp Dewpoint Dewpoint Depression Visibility Wind Speed Wind Dir Waves Ship Positions

Atalanti

Last reported at 2014-Dec-19 22:33 UTC. Time now 2014-Dec-19 23:27 UTC.
Position N 39°22' E 002°23'.

Length 97 m; draft 6 m.

Type: Other ship. MMSI: 212279000.

Date/timePositionNaut miles runAvg speedWind from/ knotsBaromVisibWave heightAir tempDewpointWater temp
2014-Dec-19 22:33N 39°22' E 002°23'0 0.1
2014-Dec-19 21:33N 39°22' E 002°23'0 0.4
2014-Dec-19 20:33N 39°23' E 002°23'0 0.4
2014-Dec-19 19:33N 39°23' E 002°23'0 0.4
2014-Dec-19 18:33N 39°23' E 002°23'0 0.4
2014-Dec-19 17:33N 39°24' E 002°24'0 0.4
2014-Dec-19 16:33N 39°24' E 002°24'0 0.0
2014-Dec-19 15:33N 39°24' E 002°24'0 0.0
2014-Dec-19 14:33N 39°24' E 002°24'0 0.3
2014-Dec-19 13:33N 39°24' E 002°24'0 0.4
2014-Dec-19 12:33N 39°25' E 002°24'0 0.4
2014-Dec-19 11:33N 39°25' E 002°24'0 0.4
2014-Dec-19 10:33N 39°25' E 002°24'0 0.4
2014-Dec-19 09:33N 39°26' E 002°24'0 0.4
2014-Dec-19 08:33N 39°26' E 002°25'0 0.4
2014-Dec-19 07:33N 39°26' E 002°25'0 0.4
2014-Dec-19 06:33N 39°27' E 002°25'0 0.4
2014-Dec-19 05:33N 39°27' E 002°25'0 0.4
2014-Dec-19 04:33N 39°27' E 002°25'0 0.4
2014-Dec-19 03:33N 39°28' E 002°25'0 0.3
2014-Dec-19 02:33N 39°28' E 002°26'0 0.0
2014-Dec-19 01:33N 39°28' E 002°26'0 0.3
2014-Dec-19 00:33N 39°28' E 002°26'0 0.4
2014-Dec-18 23:33N 39°29' E 002°26'0 0.4
2014-Dec-18 22:33N 39°29' E 002°26'0 0.4
2014-Dec-18 21:33N 39°29' E 002°26'0 0.4
2014-Dec-18 20:34N 39°30' E 002°26'0 0.4
2014-Dec-18 19:34N 39°30' E 002°27'0 0.4
2014-Dec-18 18:33N 39°30' E 002°27'0 0.4
2014-Dec-18 17:34N 39°31' E 002°27'0 0.4
2014-Dec-18 16:33N 39°31' E 002°28'0 0.2
2014-Dec-18 15:33N 39°31' E 002°28'0 0.0
2014-Dec-18 14:33N 39°31' E 002°28'0 0.1
2014-Dec-18 13:33N 39°31' E 002°28'0 0.0
2014-Dec-18 12:33N 39°31' E 002°28'0 0.0
2014-Dec-18 11:33N 39°31' E 002°28'0 0.0
2014-Dec-18 10:33N 39°31' E 002°28'0 0.1
2014-Dec-18 09:33N 39°31' E 002°28'0 0.1
2014-Dec-18 08:33N 39°31' E 002°28'0 0.0
2014-Dec-18 07:33N 39°31' E 002°28'0 0.3
2014-Dec-18 06:33N 39°31' E 002°27'0 0.0
2014-Dec-18 05:34N 39°31' E 002°27'0 0.0
2014-Dec-18 04:33N 39°31' E 002°27'0 0.0
2014-Dec-18 03:33N 39°31' E 002°27'0 0.0
2014-Dec-18 02:33N 39°31' E 002°27'0 0.0
2014-Dec-18 01:33N 39°31' E 002°27'0 0.0
2014-Dec-18 00:33N 39°31' E 002°27'0 0.0
2014-Dec-17 23:33N 39°31' E 002°27'0 0.0
2014-Dec-17 22:33N 39°31' E 002°27'0 0.0
2014-Dec-17 21:33N 39°31' E 002°27'1 0.9
2014-Dec-17 20:33N 39°31' E 002°26'0 0.0
2014-Dec-17 19:33N 39°31' E 002°26'0 0.0
2014-Dec-17 18:33N 39°31' E 002°26'3 2.9
2014-Dec-17 17:33N 39°28' E 002°25'4 4.4
2014-Dec-17 16:33N 39°24' E 002°24'0 0.3
2014-Dec-17 15:33N 39°24' E 002°23'6 5.9
2014-Dec-17 14:33N 39°20' E 002°17'6 5.9
2014-Dec-17 13:33N 39°16' E 002°11'6 6.0
2014-Dec-17 12:33N 39°13' E 002°05'6 5.9
2014-Dec-17 11:33N 39°09' E 001°60'6 5.8
2014-Dec-17 10:33N 39°05' E 001°54'5 5.3
2014-Dec-17 09:33N 39°02' E 001°49'5 5.3
2014-Dec-17 08:33N 38°58' E 001°43'2 1.8
2014-Dec-17 07:34N 38°57' E 001°41'0 0.2
2014-Dec-17 06:33N 38°57' E 001°41'0 0.0
2014-Dec-17 05:33N 38°57' E 001°41'0 0.0
2014-Dec-17 04:33N 38°57' E 001°41'0 0.0
2014-Dec-17 03:33N 38°57' E 001°41'0 0.0
2014-Dec-17 02:33N 38°57' E 001°41'0 0.0
2014-Dec-17 01:34N 38°57' E 001°41'0 0.0
2014-Dec-17 00:33N 38°57' E 001°41'0 0.0
2014-Dec-16 23:33N 38°57' E 001°41'0 0.0
2014-Dec-16 22:33N 38°57' E 001°41'0 0.0
2014-Dec-16 21:33N 38°57' E 001°41'0 0.1
2014-Dec-16 20:33N 38°57' E 001°41'0 0.4
2014-Dec-16 19:33N 38°57' E 001°40'0 0.4
2014-Dec-16 18:33N 38°57' E 001°40'0 0.4
2014-Dec-16 17:33N 38°57' E 001°39'0 0.4
2014-Dec-16 16:33N 38°57' E 001°39'0 0.4
2014-Dec-16 15:33N 38°57' E 001°38'0 0.4
2014-Dec-16 14:34N 38°57' E 001°38'0 0.4
2014-Dec-16 13:33N 38°57' E 001°37'0 0.4
2014-Dec-16 12:33N 38°56' E 001°37'0 0.4
2014-Dec-16 11:33N 38°56' E 001°36'0 0.4
2014-Dec-16 10:33N 38°56' E 001°36'0 0.4
2014-Dec-16 09:33N 38°56' E 001°36'0 0.4
2014-Dec-16 08:33N 38°56' E 001°35'0 0.4
2014-Dec-16 07:33N 38°56' E 001°35'0 0.4
2014-Dec-16 06:33N 38°56' E 001°34'0 0.4
2014-Dec-16 05:33N 38°56' E 001°34'0 0.4
2014-Dec-16 04:33N 38°56' E 001°33'0 0.3
2014-Dec-16 03:33N 38°56' E 001°33'0 0.2
2014-Dec-16 02:33N 38°56' E 001°32'0 0.4
2014-Dec-16 01:22N 38°55' E 001°32'0 0.4
2014-Dec-16 00:16N 38°55' E 001°31'0 0.4
2014-Dec-15 23:33N 38°55' E 001°31'0 0.4
2014-Dec-15 22:34N 38°55' E 001°31'0 0.4
2014-Dec-15 21:33N 38°55' E 001°30'0 0.4
2014-Dec-15 20:33N 38°55' E 001°30'0 0.4
2014-Dec-15 19:33N 38°55' E 001°29'0 0.4
2014-Dec-15 18:33N 38°54' E 001°29'0 0.3
2014-Dec-15 17:33N 38°54' E 001°28'0 0.3
2014-Dec-15 16:33N 38°54' E 001°28'0 0.0
2014-Dec-15 15:33N 38°54' E 001°28'0 0.0
2014-Dec-15 14:33N 38°54' E 001°28'0 0.0
2014-Dec-15 13:33N 38°54' E 001°28'0 0.0
2014-Dec-15 12:33N 38°54' E 001°28'0 0.0
2014-Dec-15 11:33N 38°54' E 001°28'0 0.2
2014-Dec-15 10:33N 38°54' E 001°28'6 6.4
2014-Dec-15 09:33N 38°57' E 001°36'3 2.5
2014-Dec-15 08:33N 38°58' E 001°38'0 0.0
2014-Dec-15 07:33N 38°58' E 001°38'0 0.1
2014-Dec-15 06:33N 38°58' E 001°38'6 6.5
2014-Dec-15 05:34N 39°02' E 001°45'6 6.2
2014-Dec-15 04:33N 39°05' E 001°52'6 5.9
2014-Dec-15 03:33N 39°09' E 001°58'6 5.5
2014-Dec-15 02:33N 39°12' E 002°04'5 5.2
2014-Dec-15 01:34N 39°15' E 002°10'5 5.3
2014-Dec-15 00:33N 39°17' E 002°16'6 5.6
2014-Dec-14 23:33N 39°20' E 002°22'6 5.9
2014-Dec-14 22:33N 39°23' E 002°28'6 6.0
2014-Dec-14 21:33N 39°27' E 002°34'6 6.4
2014-Dec-14 20:33N 39°32' E 002°39'1 0.6
2014-Dec-14 19:33N 39°33' E 002°38'0 0.0
2014-Dec-14 18:33N 39°33' E 002°38'0 0.0
2014-Dec-14 17:33N 39°33' E 002°38'0 0.0
2014-Dec-14 16:30N 39°33' E 002°38'0 0.0
2014-Dec-14 15:33N 39°33' E 002°38'0 0.0
2014-Dec-14 14:33N 39°33' E 002°38'0 0.0
2014-Dec-14 13:33N 39°33' E 002°38'0 0.0
2014-Dec-14 12:33N 39°33' E 002°38'0 0.0
2014-Dec-14 11:33N 39°33' E 002°38'0 0.0
2014-Dec-14 10:33N 39°33' E 002°38'0 0.0
2014-Dec-14 09:33N 39°33' E 002°38'0 0.0
2014-Dec-14 08:33N 39°33' E 002°38'1 1.0
2014-Dec-14 07:33N 39°32' E 002°39'5 5.3
2014-Dec-14 06:33N 39°27' E 002°40'4 3.8
2014-Dec-14 05:33N 39°23' E 002°41'7 7.1
2014-Dec-14 04:33N 39°16' E 002°43'7 7.1
2014-Dec-14 03:33N 39°09' E 002°40'6 6.5
2014-Dec-14 02:33N 39°03' E 002°39'6 6.0
2014-Dec-14 01:33N 39°03' E 002°47'6 6.0
2014-Dec-14 00:33N 39°04' E 002°55'6 5.7
2014-Dec-13 23:33N 39°05' E 003°02'6 5.8
2014-Dec-13 22:33N 39°04' E 003°09'6 6.0
2014-Dec-13 21:33N 39°04' E 003°17'6 6.2
2014-Dec-13 20:33N 39°04' E 003°25'6 6.1
2014-Dec-13 19:33N 39°03' E 003°33'6 6.1
2014-Dec-13 18:33N 39°03' E 003°41'4 4.0
2014-Dec-13 17:33N 39°03' E 003°46'39 6.1
2014-Dec-13 11:07N 39°01' E 004°36'6 6.4
2014-Dec-13 10:13N 39°00' E 004°44'169 7.8
2014-Dec-12 12:29N 38°49' E 008°20'7 7.5
2014-Dec-12 11:33N 38°49' E 008°29'8 7.7
2014-Dec-12 10:30N 38°50' E 008°40'8 7.9
2014-Dec-12 09:33N 38°50' E 008°49'8 7.9
2014-Dec-12 08:33N 38°52' E 008°59'8 7.8
2014-Dec-12 07:33N 38°58' E 009°06'8 8.0
2014-Dec-12 06:33N 39°05' E 009°10'2 1.8
2014-Dec-12 05:31N 39°07' E 009°09'0 0.1
2014-Dec-12 04:31N 39°07' E 009°09'0 0.0
2014-Dec-12 03:31N 39°07' E 009°09'0 0.0
2014-Dec-12 02:31N 39°07' E 009°09'0 0.0
2014-Dec-12 01:31N 39°07' E 009°09'0 0.0
2014-Dec-12 00:31N 39°07' E 009°09'0 0.0
2014-Dec-11 23:31N 39°07' E 009°09'0 0.0
2014-Dec-11 22:31N 39°07' E 009°09'0 0.0
2014-Dec-11 21:31N 39°07' E 009°09'0 0.0
2014-Dec-11 20:31N 39°07' E 009°09'0 0.0
2014-Dec-11 19:31N 39°07' E 009°09'0 0.0
2014-Dec-11 18:31N 39°07' E 009°09'0 0.0
2014-Dec-11 17:31N 39°07' E 009°09'0 0.0
2014-Dec-11 16:31N 39°07' E 009°09'0 0.0
2014-Dec-11 15:31N 39°07' E 009°09'0 0.0
2014-Dec-11 14:31N 39°07' E 009°09'0 0.0
2014-Dec-11 13:31N 39°07' E 009°09'0 0.0
2014-Dec-11 12:31N 39°07' E 009°09'0 0.0
2014-Dec-11 11:31N 39°07' E 009°09'0 0.0
2014-Dec-11 10:31N 39°07' E 009°09'0 0.0
2014-Dec-11 09:31N 39°07' E 009°09'0 0.0
2014-Dec-11 08:31N 39°07' E 009°09'0 0.0
2014-Dec-11 07:31N 39°07' E 009°09'0 0.0
2014-Dec-11 06:31N 39°07' E 009°09'0 0.0
2014-Dec-11 05:31N 39°07' E 009°09'0 0.0
2014-Dec-11 04:31N 39°07' E 009°09'0 0.0
2014-Dec-11 03:31N 39°07' E 009°09'0 0.0
2014-Dec-11 02:31N 39°07' E 009°09'0 0.0
2014-Dec-11 01:31N 39°07' E 009°09'0 0.0
2014-Dec-11 00:31N 39°07' E 009°09'0 0.0
2014-Dec-10 23:31N 39°07' E 009°09'0 0.0
2014-Dec-10 22:31N 39°07' E 009°09'0 0.0
2014-Dec-10 21:31N 39°07' E 009°09'0 0.0
2014-Dec-10 20:31N 39°07' E 009°09'0 0.0
2014-Dec-10 19:31N 39°07' E 009°09'0 0.0
2014-Dec-10 18:31N 39°07' E 009°09'0 0.0
2014-Dec-10 17:31N 39°07' E 009°09'0 0.0
2014-Dec-10 16:31N 39°07' E 009°09'0 0.0
2014-Dec-10 15:31N 39°07' E 009°09'0 0.0
2014-Dec-10 14:31N 39°07' E 009°09'0 0.0
2014-Dec-10 13:31N 39°07' E 009°09'0 0.0
2014-Dec-10 12:31N 39°07' E 009°09'0 0.0
2014-Dec-10 11:31N 39°07' E 009°09'0 0.0
2014-Dec-10 10:31N 39°07' E 009°09'0 0.0
2014-Dec-10 09:31N 39°07' E 009°09'0 0.0
2014-Dec-10 08:31N 39°07' E 009°09'0 0.0
2014-Dec-10 07:31N 39°07' E 009°09'0 0.0
2014-Dec-10 06:31N 39°07' E 009°09'0 0.0
2014-Dec-10 05:31N 39°07' E 009°09'0 0.0
2014-Dec-10 04:31N 39°07' E 009°09'0 0.0
2014-Dec-10 03:31N 39°07' E 009°09'0 0.0
2014-Dec-10 02:31N 39°07' E 009°09'0 0.0
2014-Dec-10 01:31N 39°07' E 009°09'0 0.0
2014-Dec-10 00:31N 39°07' E 009°09'0 0.0
2014-Dec-09 23:31N 39°07' E 009°09'  

Dump ship's entire track history